sensor_id;sensor_type;location;lat;lon;timestamp;pressure;altitude;pressure_sealevel;temperature;humidity
5703;BME280;2876;51.738;10.050;2023-05-20T00:04:56;100065.84;;;11.32;81.14
5703;BME280;2876;51.738;10.050;2023-05-20T00:10:58;100064.53;;;11.28;81.21
5703;BME280;2876;51.738;10.050;2023-05-20T00:17:00;100059.72;;;11.24;81.18
5703;BME280;2876;51.738;10.050;2023-05-20T00:23:02;100054.91;;;11.19;81.28
5703;BME280;2876;51.738;10.050;2023-05-20T00:29:04;100058.22;;;11.21;81.66
5703;BME280;2876;51.738;10.050;2023-05-20T00:35:06;100060.63;;;11.16;81.78
5703;BME280;2876;51.738;10.050;2023-05-20T00:41:09;100056.84;;;11.25;81.71
5703;BME280;2876;51.738;10.050;2023-05-20T00:47:11;100050.34;;;11.34;81.94
5703;BME280;2876;51.738;10.050;2023-05-20T00:53:16;100049.06;;;11.45;81.64
5703;BME280;2876;51.738;10.050;2023-05-20T00:59:19;100049.53;;;11.85;80.67
5703;BME280;2876;51.738;10.050;2023-05-20T01:05:21;100034.97;;;11.94;80.08
5703;BME280;2876;51.738;10.050;2023-05-20T01:11:35;100048.16;;;12.10;80.15
5703;BME280;2876;51.738;10.050;2023-05-20T01:17:45;100030.19;;;12.11;79.32
5703;BME280;2876;51.738;10.050;2023-05-20T01:23:47;100032.84;;;11.89;79.86
5703;BME280;2876;51.738;10.050;2023-05-20T01:29:51;100028.75;;;11.93;80.38
5703;BME280;2876;51.738;10.050;2023-05-20T01:35:54;100025.38;;;12.06;80.14
5703;BME280;2876;51.738;10.050;2023-05-20T01:41:57;100034.59;;;11.97;80.38
5703;BME280;2876;51.738;10.050;2023-05-20T01:47:59;100025.31;;;12.00;80.93
5703;BME280;2876;51.738;10.050;2023-05-20T01:54:02;100029.00;;;11.99;81.28
5703;BME280;2876;51.738;10.050;2023-05-20T02:00:05;100023.38;;;11.93;82.42
5703;BME280;2876;51.738;10.050;2023-05-20T02:06:07;100012.44;;;11.95;82.07
5703;BME280;2876;51.738;10.050;2023-05-20T02:12:10;100005.72;;;12.27;80.38
5703;BME280;2876;51.738;10.050;2023-05-20T02:18:17;99997.31;;;12.37;79.70
5703;BME280;2876;51.738;10.050;2023-05-20T02:24:19;99996.13;;;12.18;80.58
5703;BME280;2876;51.738;10.050;2023-05-20T02:30:22;100000.91;;;12.23;80.73
5703;BME280;2876;51.738;10.050;2023-05-20T02:36:24;99987.25;;;12.46;79.96
5703;BME280;2876;51.738;10.050;2023-05-20T02:42:26;99997.78;;;12.47;80.29
5703;BME280;2876;51.738;10.050;2023-05-20T02:48:28;99997.59;;;12.49;80.65
5703;BME280;2876;51.738;10.050;2023-05-20T02:54:30;100006.44;;;12.70;79.99
5703;BME280;2876;51.738;10.050;2023-05-20T03:00:32;100000.63;;;12.39;80.93
5703;BME280;2876;51.738;10.050;2023-05-20T03:06:41;99999.94;;;12.30;81.55
5703;BME280;2876;51.738;10.050;2023-05-20T03:12:45;100002.06;;;12.13;82.22
5703;BME280;2876;51.738;10.050;2023-05-20T03:18:47;100002.25;;;12.12;82.67
5703;BME280;2876;51.738;10.050;2023-05-20T03:24:50;100002.00;;;12.07;82.92
5703;BME280;2876;51.738;10.050;2023-05-20T03:30:53;100009.69;;;12.10;82.89
5703;BME280;2876;51.738;10.050;2023-05-20T03:36:55;100008.94;;;11.95;83.43
5703;BME280;2876;51.738;10.050;2023-05-20T03:42:58;100014.81;;;11.83;83.88
5703;BME280;2876;51.738;10.050;2023-05-20T03:49:00;100021.41;;;11.66;84.14
5703;BME280;2876;51.738;10.050;2023-05-20T03:55:06;100015.13;;;11.80;84.37
5703;BME280;2876;51.738;10.050;2023-05-20T04:01:08;100009.72;;;11.74;85.04
5703;BME280;2876;51.738;10.050;2023-05-20T04:07:13;100008.59;;;11.83;85.26
5703;BME280;2876;51.738;10.050;2023-05-20T04:13:15;100006.22;;;12.16;85.20
5703;BME280;2876;51.738;10.050;2023-05-20T04:19:17;100007.81;;;11.89;85.33
5703;BME280;2876;51.738;10.050;2023-05-20T04:25:25;100007.97;;;12.02;85.23
5703;BME280;2876;51.738;10.050;2023-05-20T04:31:28;100005.97;;;12.32;84.67
5703;BME280;2876;51.738;10.050;2023-05-20T04:37:32;100002.66;;;12.58;84.25
5703;BME280;2876;51.738;10.050;2023-05-20T04:43:35;100006.22;;;12.65;83.35
5703;BME280;2876;51.738;10.050;2023-05-20T04:49:39;100024.09;;;12.73;83.03
5703;BME280;2876;51.738;10.050;2023-05-20T04:55:41;100016.19;;;13.00;81.96
5703;BME280;2876;51.738;10.050;2023-05-20T05:01:44;100014.41;;;13.13;81.08
5703;BME280;2876;51.738;10.050;2023-05-20T05:07:46;100016.88;;;13.15;80.83
5703;BME280;2876;51.738;10.050;2023-05-20T05:13:48;100017.47;;;13.45;80.48
5703;BME280;2876;51.738;10.050;2023-05-20T05:19:50;100004.44;;;13.55;79.34
5703;BME280;2876;51.738;10.050;2023-05-20T05:25:53;99996.19;;;13.63;79.43
5703;BME280;2876;51.738;10.050;2023-05-20T05:31:55;100000.56;;;13.78;78.65
5703;BME280;2876;51.738;10.050;2023-05-20T05:37:56;100000.22;;;14.01;77.56
5703;BME280;2876;51.738;10.050;2023-05-20T05:43:58;100003.97;;;14.19;77.13
5703;BME280;2876;51.738;10.050;2023-05-20T05:50:00;99996.91;;;14.25;77.48
5703;BME280;2876;51.738;10.050;2023-05-20T05:56:03;100004.63;;;14.68;76.47
5703;BME280;2876;51.738;10.050;2023-05-20T06:02:05;100002.94;;;14.47;77.59
5703;BME280;2876;51.738;10.050;2023-05-20T06:08:07;100010.75;;;15.15;76.00
5703;BME280;2876;51.738;10.050;2023-05-20T06:14:09;99998.91;;;15.61;74.20
5703;BME280;2876;51.738;10.050;2023-05-20T06:20:11;100000.34;;;15.77;72.60
5703;BME280;2876;51.738;10.050;2023-05-20T06:26:13;99997.75;;;16.20;71.42
5703;BME280;2876;51.738;10.050;2023-05-20T06:32:15;99997.63;;;16.08;70.31
5703;BME280;2876;51.738;10.050;2023-05-20T06:38:18;100006.91;;;16.44;70.65
5703;BME280;2876;51.738;10.050;2023-05-20T06:44:20;100008.81;;;16.43;71.04
5703;BME280;2876;51.738;10.050;2023-05-20T06:50:22;100005.13;;;16.63;68.54
5703;BME280;2876;51.738;10.050;2023-05-20T06:56:25;100006.75;;;16.64;68.51
5703;BME280;2876;51.738;10.050;2023-05-20T07:02:27;99995.69;;;16.15;70.46
5703;BME280;2876;51.738;10.050;2023-05-20T07:08:29;99994.97;;;16.02;70.65
5703;BME280;2876;51.738;10.050;2023-05-20T07:14:31;99986.63;;;16.03;72.52
5703;BME280;2876;51.738;10.050;2023-05-20T07:20:33;99988.38;;;16.22;73.79
5703;BME280;2876;51.738;10.050;2023-05-20T07:26:35;99975.66;;;16.23;71.75
5703;BME280;2876;51.738;10.050;2023-05-20T07:32:37;99971.53;;;17.07;68.30
5703;BME280;2876;51.738;10.050;2023-05-20T07:38:39;99968.34;;;17.47;66.81
5703;BME280;2876;51.738;10.050;2023-05-20T07:44:50;99964.56;;;17.48;65.80
5703;BME280;2876;51.738;10.050;2023-05-20T07:50:52;99955.31;;;17.86;65.04
5703;BME280;2876;51.738;10.050;2023-05-20T07:56:54;99943.47;;;18.92;63.19
5703;BME280;2876;51.738;10.050;2023-05-20T08:02:56;99942.91;;;19.31;59.32
5703;BME280;2876;51.738;10.050;2023-05-20T08:09:02;99948.47;;;19.24;57.71
5703;BME280;2876;51.738;10.050;2023-05-20T08:21:25;99930.88;;;19.55;57.25
5703;BME280;2876;51.738;10.050;2023-05-20T08:27:27;99934.72;;;19.71;57.16
5703;BME280;2876;51.738;10.050;2023-05-20T08:33:29;99926.75;;;20.15;57.11
5703;BME280;2876;51.738;10.050;2023-05-20T08:39:31;99918.84;;;19.96;55.74
5703;BME280;2876;51.738;10.050;2023-05-20T08:45:37;99918.16;;;20.06;56.72
5703;BME280;2876;51.738;10.050;2023-05-20T08:51:39;99917.25;;;20.34;54.60
5703;BME280;2876;51.738;10.050;2023-05-20T08:57:43;99926.44;;;20.28;52.63
5703;BME280;2876;51.738;10.050;2023-05-20T09:03:46;99921.66;;;20.18;55.25
5703;BME280;2876;51.738;10.050;2023-05-20T09:09:48;99910.16;;;19.83;54.44
5703;BME280;2876;51.738;10.050;2023-05-20T09:15:50;99912.44;;;19.74;55.58
5703;BME280;2876;51.738;10.050;2023-05-20T09:21:53;99907.66;;;19.64;54.84
5703;BME280;2876;51.738;10.050;2023-05-20T09:27:59;99903.38;;;19.40;56.68
5703;BME280;2876;51.738;10.050;2023-05-20T09:34:02;99914.06;;;19.58;58.25
5703;BME280;2876;51.738;10.050;2023-05-20T09:40:04;99913.22;;;20.20;56.49
5703;BME280;2876;51.738;10.050;2023-05-20T09:46:10;99915.03;;;20.14;57.63
5703;BME280;2876;51.738;10.050;2023-05-20T09:52:14;99921.47;;;19.91;57.39
5703;BME280;2876;51.738;10.050;2023-05-20T09:58:19;99914.81;;;19.99;57.47
5703;BME280;2876;51.738;10.050;2023-05-20T10:04:22;99912.03;;;19.25;58.48
5703;BME280;2876;51.738;10.050;2023-05-20T10:23:29;99918.81;;;19.22;60.13
5703;BME280;2876;51.738;10.050;2023-05-20T10:30:14;99901.66;;;19.62;58.47
5703;BME280;2876;51.738;10.050;2023-05-20T10:36:28;99887.22;;;19.50;59.05
5703;BME280;2876;51.738;10.050;2023-05-20T10:42:32;99900.97;;;19.43;59.64
5703;BME280;2876;51.738;10.050;2023-05-20T10:48:41;99886.06;;;19.17;59.78
5703;BME280;2876;51.738;10.050;2023-05-20T10:54:56;99882.00;;;19.03;60.29
5703;BME280;2876;51.738;10.050;2023-05-20T11:00:59;99882.03;;;18.80;61.25
5703;BME280;2876;51.738;10.050;2023-05-20T11:07:02;99880.28;;;18.38;62.63
5703;BME280;2876;51.738;10.050;2023-05-20T11:13:05;99871.56;;;18.36;62.64
5703;BME280;2876;51.738;10.050;2023-05-20T11:19:08;99870.34;;;17.97;63.63
5703;BME280;2876;51.738;10.050;2023-05-20T11:25:16;99866.34;;;17.99;64.60
5703;BME280;2876;51.738;10.050;2023-05-20T11:31:20;99857.47;;;18.63;63.46
5703;BME280;2876;51.738;10.050;2023-05-20T11:37:23;99859.59;;;19.13;62.17
5703;BME280;2876;51.738;10.050;2023-05-20T11:43:25;99853.97;;;19.48;60.23
5703;BME280;2876;51.738;10.050;2023-05-20T11:49:27;99855.13;;;19.81;60.47
5703;BME280;2876;51.738;10.050;2023-05-20T11:55:31;99828.25;;;20.40;58.84
5703;BME280;2876;51.738;10.050;2023-05-20T12:01:38;99827.66;;;22.69;53.21
5703;BME280;2876;51.738;10.050;2023-05-20T12:07:44;99837.94;;;22.99;51.17
5703;BME280;2876;51.738;10.050;2023-05-20T12:13:46;99818.03;;;23.45;50.43
5703;BME280;2876;51.738;10.050;2023-05-20T12:19:48;99817.19;;;24.31;47.38
5703;BME280;2876;51.738;10.050;2023-05-20T12:25:50;99801.38;;;25.71;45.64
5703;BME280;2876;51.738;10.050;2023-05-20T12:31:52;99799.44;;;25.72;44.70
5703;BME280;2876;51.738;10.050;2023-05-20T12:37:57;99814.84;;;26.79;42.97
5703;BME280;2876;51.738;10.050;2023-05-20T12:43:59;99815.75;;;27.88;40.29
5703;BME280;2876;51.738;10.050;2023-05-20T12:50:02;99809.28;;;27.60;41.84
5703;BME280;2876;51.738;10.050;2023-05-20T12:56:04;99802.63;;;25.89;43.00
5703;BME280;2876;51.738;10.050;2023-05-20T13:02:08;99795.84;;;24.13;46.80
5703;BME280;2876;51.738;10.050;2023-05-20T13:08:11;99798.00;;;23.03;50.24
5703;BME280;2876;51.738;10.050;2023-05-20T13:14:15;99783.75;;;21.27;55.52
5703;BME280;2876;51.738;10.050;2023-05-20T13:20:18;99787.25;;;21.49;55.54
5703;BME280;2876;51.738;10.050;2023-05-20T13:26:20;99784.81;;;20.72;56.88
5703;BME280;2876;51.738;10.050;2023-05-20T13:32:22;99778.66;;;20.21;59.00
5703;BME280;2876;51.738;10.050;2023-05-20T13:44:35;99761.97;;;19.45;61.84
5703;BME280;2876;51.738;10.050;2023-05-20T13:50:37;99768.81;;;19.31;63.01
5703;BME280;2876;51.738;10.050;2023-05-20T13:56:39;99772.06;;;18.99;63.39
5703;BME280;2876;51.738;10.050;2023-05-20T14:02:41;99766.63;;;19.16;64.29
5703;BME280;2876;51.738;10.050;2023-05-20T14:08:44;99765.19;;;18.96;64.49
5703;BME280;2876;51.738;10.050;2023-05-20T14:14:47;99757.09;;;19.13;64.72
5703;BME280;2876;51.738;10.050;2023-05-20T14:20:49;99747.84;;;19.48;63.17
5703;BME280;2876;51.738;10.050;2023-05-20T14:26:50;99742.00;;;19.22;63.17
5703;BME280;2876;51.738;10.050;2023-05-20T14:32:53;99746.84;;;18.75;66.50
5703;BME280;2876;51.738;10.050;2023-05-20T14:38:55;99743.91;;;18.65;65.86
5703;BME280;2876;51.738;10.050;2023-05-20T14:44:57;99736.66;;;18.54;66.26
5703;BME280;2876;51.738;10.050;2023-05-20T14:50:59;99726.44;;;18.61;66.59
5703;BME280;2876;51.738;10.050;2023-05-20T14:57:01;99723.59;;;18.67;66.90
5703;BME280;2876;51.738;10.050;2023-05-20T15:03:04;99724.50;;;18.44;66.99
5703;BME280;2876;51.738;10.050;2023-05-20T15:09:07;99726.38;;;18.04;68.58
5703;BME280;2876;51.738;10.050;2023-05-20T15:15:09;99706.25;;;18.16;68.50
5703;BME280;2876;51.738;10.050;2023-05-20T15:21:12;99703.91;;;18.20;68.25
5703;BME280;2876;51.738;10.050;2023-05-20T15:27:14;99708.09;;;18.39;69.00
5703;BME280;2876;51.738;10.050;2023-05-20T15:33:16;99708.44;;;19.00;67.41
5703;BME280;2876;51.738;10.050;2023-05-20T15:39:18;99712.00;;;19.51;65.82
5703;BME280;2876;51.738;10.050;2023-05-20T15:45:20;99681.31;;;19.56;63.74
5703;BME280;2876;51.738;10.050;2023-05-20T15:51:22;99676.53;;;20.45;62.29
5703;BME280;2876;51.738;10.050;2023-05-20T15:57:24;99671.75;;;22.74;57.11
5703;BME280;2876;51.738;10.050;2023-05-20T16:03:27;99668.28;;;24.30;50.72
5703;BME280;2876;51.738;10.050;2023-05-20T16:09:29;99665.91;;;24.09;50.42
5703;BME280;2876;51.738;10.050;2023-05-20T16:15:31;99662.78;;;23.20;51.54
5703;BME280;2876;51.738;10.050;2023-05-20T16:21:37;99654.00;;;23.69;51.13
5703;BME280;2876;51.738;10.050;2023-05-20T16:27:39;99653.00;;;24.69;49.12
5703;BME280;2876;51.738;10.050;2023-05-20T16:33:41;99642.47;;;24.86;47.26
5703;BME280;2876;51.738;10.050;2023-05-20T16:39:43;99628.56;;;25.06;46.41
5703;BME280;2876;51.738;10.050;2023-05-20T16:45:45;99638.00;;;25.83;45.52
5703;BME280;2876;51.738;10.050;2023-05-20T16:51:47;99637.50;;;24.88;46.77
5703;BME280;2876;51.738;10.050;2023-05-20T16:57:49;99634.88;;;24.23;49.12
5703;BME280;2876;51.738;10.050;2023-05-20T17:03:51;99630.66;;;22.34;53.79
5703;BME280;2876;51.738;10.050;2023-05-20T17:09:53;99638.81;;;21.23;58.10
5703;BME280;2876;51.738;10.050;2023-05-20T17:15:55;99636.72;;;20.98;59.02
5703;BME280;2876;51.738;10.050;2023-05-20T17:21:57;99635.59;;;22.32;55.95
5703;BME280;2876;51.738;10.050;2023-05-20T17:27:59;99636.19;;;22.79;54.17
5703;BME280;2876;51.738;10.050;2023-05-20T17:34:01;99635.97;;;21.98;56.20
5703;BME280;2876;51.738;10.050;2023-05-20T17:40:04;99646.47;;;21.64;57.76
5703;BME280;2876;51.738;10.050;2023-05-20T17:46:06;99630.91;;;20.58;61.23
5703;BME280;2876;51.738;10.050;2023-05-20T17:52:08;99627.09;;;20.37;62.15
5703;BME280;2876;51.738;10.050;2023-05-20T17:58:10;99631.38;;;20.27;62.59
5703;BME280;2876;51.738;10.050;2023-05-20T18:04:13;99632.19;;;19.62;64.73
5703;BME280;2876;51.738;10.050;2023-05-20T18:10:15;99647.97;;;19.10;66.87
5703;BME280;2876;51.738;10.050;2023-05-20T18:16:17;99647.72;;;19.11;66.52
5703;BME280;2876;51.738;10.050;2023-05-20T18:22:19;99649.78;;;18.87;67.59
5703;BME280;2876;51.738;10.050;2023-05-20T18:28:21;99641.22;;;18.50;69.00
5703;BME280;2876;51.738;10.050;2023-05-20T18:34:23;99640.59;;;18.31;69.82
5703;BME280;2876;51.738;10.050;2023-05-20T18:40:25;99639.22;;;18.17;70.45
5703;BME280;2876;51.738;10.050;2023-05-20T18:46:28;99633.19;;;17.86;71.82
5703;BME280;2876;51.738;10.050;2023-05-20T18:52:31;99637.28;;;17.89;72.08
5703;BME280;2876;51.738;10.050;2023-05-20T18:58:33;99636.13;;;17.73;73.16
5703;BME280;2876;51.738;10.050;2023-05-20T19:04:35;99634.22;;;17.62;73.76
5703;BME280;2876;51.738;10.050;2023-05-20T19:10:37;99630.72;;;17.38;74.76
5703;BME280;2876;51.738;10.050;2023-05-20T19:16:39;99639.09;;;17.24;75.19
5703;BME280;2876;51.738;10.050;2023-05-20T19:22:41;99636.03;;;17.09;76.33
5703;BME280;2876;51.738;10.050;2023-05-20T19:28:43;99638.84;;;16.91;77.08
5703;BME280;2876;51.738;10.050;2023-05-20T19:34:45;99633.50;;;16.72;78.17
5703;BME280;2876;51.738;10.050;2023-05-20T19:40:47;99632.47;;;16.25;79.69
5703;BME280;2876;51.738;10.050;2023-05-20T19:46:50;99643.78;;;16.22;80.04
5703;BME280;2876;51.738;10.050;2023-05-20T19:52:52;99641.78;;;15.99;80.94
5703;BME280;2876;51.738;10.050;2023-05-20T19:58:54;99637.16;;;16.18;80.88
5703;BME280;2876;51.738;10.050;2023-05-20T20:04:57;99629.28;;;15.98;81.20
5703;BME280;2876;51.738;10.050;2023-05-20T20:11:00;99624.88;;;15.85;82.24
5703;BME280;2876;51.738;10.050;2023-05-20T20:17:02;99630.31;;;15.60;83.17
5703;BME280;2876;51.738;10.050;2023-05-20T20:23:05;99622.97;;;15.49;84.02
5703;BME280;2876;51.738;10.050;2023-05-20T20:29:08;99632.69;;;15.13;85.58
5703;BME280;2876;51.738;10.050;2023-05-20T20:35:10;99622.41;;;14.97;86.23
5703;BME280;2876;51.738;10.050;2023-05-20T20:41:13;99620.00;;;14.64;88.06
5703;BME280;2876;51.738;10.050;2023-05-20T20:47:17;99617.16;;;14.52;88.84
5703;BME280;2876;51.738;10.050;2023-05-20T20:53:19;99613.75;;;14.63;89.14
5703;BME280;2876;51.738;10.050;2023-05-20T20:59:21;99621.13;;;14.50;90.21
5703;BME280;2876;51.738;10.050;2023-05-20T21:05:26;99616.91;;;14.22;90.45
5703;BME280;2876;51.738;10.050;2023-05-20T21:11:29;99605.13;;;14.10;91.72
5703;BME280;2876;51.738;10.050;2023-05-20T21:17:31;99601.97;;;13.81;93.27
5703;BME280;2876;51.738;10.050;2023-05-20T21:23:33;99595.69;;;13.87;93.96
5703;BME280;2876;51.738;10.050;2023-05-20T21:29:35;99593.34;;;13.98;94.06
5703;BME280;2876;51.738;10.050;2023-05-20T21:35:40;99592.53;;;13.97;94.98
5703;BME280;2876;51.738;10.050;2023-05-20T21:41:42;99588.59;;;13.93;95.15
5703;BME280;2876;51.738;10.050;2023-05-20T21:47:44;99580.88;;;14.03;94.49
5703;BME280;2876;51.738;10.050;2023-05-20T21:53:47;99578.69;;;13.87;94.59
5703;BME280;2876;51.738;10.050;2023-05-20T21:59:49;99579.75;;;13.86;94.71
5703;BME280;2876;51.738;10.050;2023-05-20T22:05:50;99569.59;;;13.81;94.13
5703;BME280;2876;51.738;10.050;2023-05-20T22:11:53;99566.09;;;13.81;94.03
5703;BME280;2876;51.738;10.050;2023-05-20T22:17:56;99572.16;;;13.63;94.36
5703;BME280;2876;51.738;10.050;2023-05-20T22:23:58;99557.06;;;13.55;94.81
5703;BME280;2876;51.738;10.050;2023-05-20T22:30:00;99553.75;;;13.47;95.10
5703;BME280;2876;51.738;10.050;2023-05-20T22:36:02;99545.22;;;13.56;95.71
5703;BME280;2876;51.738;10.050;2023-05-20T22:42:04;99540.84;;;13.68;96.29
5703;BME280;2876;51.738;10.050;2023-05-20T22:48:06;99531.63;;;13.83;95.80
5703;BME280;2876;51.738;10.050;2023-05-20T22:54:09;99521.13;;;13.68;95.43
5703;BME280;2876;51.738;10.050;2023-05-20T23:00:11;99506.03;;;13.60;95.53
5703;BME280;2876;51.738;10.050;2023-05-20T23:06:16;99507.53;;;13.50;96.10
5703;BME280;2876;51.738;10.050;2023-05-20T23:12:18;99509.06;;;13.26;96.69
5703;BME280;2876;51.738;10.050;2023-05-20T23:18:19;99500.97;;;13.26;97.65
5703;BME280;2876;51.738;10.050;2023-05-20T23:24:22;99495.19;;;13.15;97.66
5703;BME280;2876;51.738;10.050;2023-05-20T23:30:24;99496.66;;;13.18;97.49
5703;BME280;2876;51.738;10.050;2023-05-20T23:36:26;99503.97;;;12.91;97.67
5703;BME280;2876;51.738;10.050;2023-05-20T23:42:29;99494.66;;;12.87;98.38
5703;BME280;2876;51.738;10.050;2023-05-20T23:48:32;99487.19;;;12.89;99.11
5703;BME280;2876;51.738;10.050;2023-05-20T23:54:34;99482.25;;;12.86;99.31
